createdAt,value
2019-06-27T00:01:43.934Z,28.73
2019-06-27T00:04:12.320Z,28.64
2019-06-27T00:06:40.685Z,28.61
2019-06-27T00:09:10.640Z,28.54
2019-06-27T00:11:38.979Z,28.49
2019-06-27T00:14:07.351Z,28.54
2019-06-27T00:16:35.688Z,28.45
2019-06-27T00:19:04.251Z,28.50
2019-06-27T00:21:32.590Z,28.55
2019-06-27T00:24:00.903Z,28.51
2019-06-27T00:26:31.658Z,28.55
2019-06-27T00:28:59.977Z,28.53
2019-06-27T00:31:28.386Z,28.53
2019-06-27T00:33:56.762Z,28.38
2019-06-27T00:36:25.092Z,28.27
2019-06-27T00:38:53.406Z,28.12
2019-06-27T00:41:21.795Z,28.05
2019-06-27T00:43:50.295Z,27.94
2019-06-27T00:46:18.804Z,27.89
2019-06-27T00:48:47.143Z,27.97
2019-06-27T00:51:15.614Z,28.00
2019-06-27T00:53:43.938Z,28.02
2019-06-27T00:56:12.308Z,28.02
2019-06-27T00:58:40.798Z,27.99
2019-06-27T01:01:09.394Z,27.98
2019-06-27T01:03:37.909Z,27.93
2019-06-27T01:06:06.291Z,27.89
2019-06-27T01:08:34.719Z,27.88
2019-06-27T01:11:03.118Z,27.86
2019-06-27T01:13:31.462Z,27.88
2019-06-27T01:15:59.858Z,27.79
2019-06-27T01:18:28.302Z,27.73
2019-06-27T01:20:58.146Z,27.72
2019-06-27T01:23:26.560Z,27.67
2019-06-27T01:25:55.132Z,27.70
2019-06-27T01:28:23.536Z,27.72
2019-06-27T01:30:51.909Z,27.73
2019-06-27T01:33:20.259Z,27.72
2019-06-27T01:35:48.558Z,27.66
2019-06-27T01:38:16.961Z,27.67
2019-06-27T01:40:45.303Z,27.66
2019-06-27T01:43:13.795Z,27.58
2019-06-27T01:45:52.612Z,27.63
2019-06-27T01:48:21.112Z,27.62
2019-06-27T01:50:49.495Z,27.56
2019-06-27T01:53:17.911Z,27.51
2019-06-27T01:55:46.597Z,27.47
2019-06-27T01:58:15.039Z,27.44
2019-06-27T02:00:43.409Z,27.32
2019-06-27T02:03:12.552Z,27.29
2019-06-27T02:05:41.122Z,27.24
2019-06-27T02:08:09.430Z,27.25
2019-06-27T02:10:37.837Z,27.30
2019-06-27T02:13:06.148Z,27.20
2019-06-27T02:15:34.481Z,27.11
2019-06-27T02:18:02.944Z,26.94
2019-06-27T02:20:31.407Z,27.06
2019-06-27T02:22:59.781Z,27.07
2019-06-27T02:25:28.208Z,27.08
2019-06-27T02:28:03.685Z,27.01
2019-06-27T02:30:38.810Z,26.89
2019-06-27T02:33:07.112Z,26.77
2019-06-27T02:35:35.517Z,26.63
2019-06-27T02:38:03.890Z,26.67
2019-06-27T02:40:32.392Z,26.64
2019-06-27T02:43:00.783Z,26.74
2019-06-27T02:45:29.265Z,26.76
2019-06-27T02:47:57.580Z,26.80
2019-06-27T02:50:25.975Z,26.75
2019-06-27T02:52:54.528Z,26.74
2019-06-27T02:55:22.940Z,26.64
2019-06-27T02:57:51.346Z,26.54
2019-06-27T03:00:20.199Z,26.54
2019-06-27T03:02:48.649Z,26.52
2019-06-27T03:05:17.148Z,26.52
2019-06-27T03:07:45.460Z,26.50
2019-06-27T03:10:14.511Z,26.50
2019-06-27T03:12:42.836Z,26.48
2019-06-27T03:15:11.279Z,26.48
2019-06-27T03:17:39.629Z,26.44
2019-06-27T03:20:09.469Z,26.48
2019-06-27T03:22:37.846Z,26.41
2019-06-27T03:25:06.972Z,26.45
2019-06-27T03:27:35.448Z,26.39
2019-06-27T03:30:05.195Z,26.37
2019-06-27T03:32:33.601Z,26.42
2019-06-27T03:35:03.529Z,26.45
2019-06-27T03:37:31.948Z,26.45
2019-06-27T03:40:00.401Z,26.43
2019-06-27T03:42:29.032Z,26.41
2019-06-27T03:44:57.421Z,26.43
2019-06-27T03:47:26.020Z,26.46
2019-06-27T03:49:55.465Z,26.34
2019-06-27T03:52:23.789Z,26.35
2019-06-27T03:54:52.112Z,26.28
2019-06-27T03:57:20.711Z,26.34
2019-06-27T03:59:49.097Z,26.40
2019-06-27T04:02:17.484Z,26.46
2019-06-27T04:04:45.860Z,26.43
2019-06-27T04:07:14.353Z,26.41
2019-06-27T04:09:42.663Z,26.44
2019-06-27T04:12:10.994Z,26.41
2019-06-27T04:14:39.378Z,26.45
2019-06-27T04:17:07.804Z,26.48
2019-06-27T04:19:36.204Z,26.55
2019-06-27T04:22:06.143Z,26.53
2019-06-27T04:24:34.534Z,26.55
2019-06-27T04:27:02.904Z,26.52
2019-06-27T04:29:33.825Z,26.53
2019-06-27T04:32:01.434Z,26.57
2019-06-27T04:34:29.923Z,26.53
2019-06-27T04:36:58.279Z,26.56
2019-06-27T04:39:26.828Z,26.67
2019-06-27T04:41:55.136Z,26.68
2019-06-27T04:44:23.467Z,26.61
2019-06-27T04:46:51.907Z,26.71
2019-06-27T04:49:20.332Z,26.73
2019-06-27T04:51:48.715Z,26.70
2019-06-27T04:54:17.201Z,26.79
2019-06-27T04:56:45.513Z,26.83
2019-06-27T04:59:13.841Z,26.97
2019-06-27T05:01:42.223Z,26.95
2019-06-27T05:04:10.661Z,27.04
2019-06-27T05:06:39.062Z,27.12
2019-06-27T05:09:07.419Z,27.19
2019-06-27T05:11:35.730Z,27.25
2019-06-27T05:14:04.195Z,27.32
2019-06-27T05:16:32.505Z,27.40
2019-06-27T05:19:00.898Z,27.43
2019-06-27T05:21:29.322Z,27.49
2019-06-27T05:23:57.649Z,27.51
2019-06-27T05:26:25.976Z,27.51
2019-06-27T05:28:54.297Z,27.60
2019-06-27T05:31:22.789Z,27.69
2019-06-27T05:33:51.097Z,27.72
2019-06-27T05:36:19.439Z,27.71
2019-06-27T05:38:47.795Z,27.66
2019-06-27T05:41:16.157Z,27.66
2019-06-27T05:43:44.660Z,27.59
2019-06-27T05:46:13.185Z,27.64
2019-06-27T05:48:41.484Z,27.81
2019-06-27T05:51:09.812Z,27.89
2019-06-27T05:53:38.482Z,27.98
2019-06-27T05:56:06.821Z,28.03
2019-06-27T05:58:35.107Z,28.08
2019-06-27T06:01:03.765Z,28.17
2019-06-27T06:03:32.059Z,28.22
2019-06-27T06:06:00.399Z,28.23
2019-06-27T06:08:28.709Z,28.17
2019-06-27T06:10:57.353Z,28.22
2019-06-27T06:13:25.716Z,28.32
2019-06-27T06:15:54.194Z,28.37
2019-06-27T06:18:22.490Z,28.43
2019-06-27T06:20:50.841Z,28.56
2019-06-27T06:23:19.195Z,28.61
2019-06-27T06:25:47.549Z,28.64
2019-06-27T06:28:16.012Z,28.62
2019-06-27T06:30:45.314Z,28.76
2019-06-27T06:33:13.733Z,28.74
2019-06-27T06:35:42.127Z,28.82
2019-06-27T06:38:10.494Z,28.91
2019-06-27T06:40:38.911Z,28.94
2019-06-27T06:43:07.337Z,29.10
2019-06-27T06:45:36.836Z,29.14
2019-06-27T06:48:05.533Z,29.22
2019-06-27T06:50:33.830Z,29.18
2019-06-27T06:53:02.149Z,29.32
2019-06-27T06:55:30.992Z,29.41
2019-06-27T06:57:59.325Z,29.49
2019-06-27T07:00:27.767Z,29.60
2019-06-27T07:02:56.085Z,29.72
2019-06-27T07:05:24.400Z,29.83
2019-06-27T07:07:52.807Z,29.90
2019-06-27T07:10:21.120Z,29.99
2019-06-27T07:12:49.501Z,30.09
2019-06-27T07:15:17.869Z,29.98
2019-06-27T07:17:46.213Z,30.00
2019-06-27T07:20:14.822Z,30.02
2019-06-27T07:22:43.120Z,30.01
2019-06-27T07:25:11.975Z,30.02
2019-06-27T07:27:40.306Z,30.18
2019-06-27T07:30:09.016Z,30.26
2019-06-27T07:32:37.433Z,30.27
2019-06-27T07:35:06.702Z,30.39
2019-06-27T07:37:35.035Z,30.51
2019-06-27T07:40:05.281Z,30.65
2019-06-27T07:42:33.628Z,30.65
2019-06-27T07:45:02.283Z,30.55
2019-06-27T07:47:30.697Z,30.46
2019-06-27T07:49:59.191Z,30.59
2019-06-27T07:52:27.604Z,30.65
2019-06-27T07:54:55.915Z,30.54
2019-06-27T07:57:24.245Z,30.67
2019-06-27T07:59:52.620Z,30.67
2019-06-27T08:02:20.995Z,30.78
2019-06-27T08:04:49.311Z,30.79
2019-06-27T08:07:21.070Z,30.80
2019-06-27T08:09:47.726Z,31.01
2019-06-27T08:12:16.109Z,31.02
2019-06-27T08:14:44.522Z,31.08
2019-06-27T08:17:12.828Z,31.17
2019-06-27T08:19:41.160Z,31.21
2019-06-27T08:22:09.563Z,31.30
2019-06-27T08:24:37.897Z,31.33
2019-06-27T08:27:06.634Z,31.37
2019-06-27T08:29:34.973Z,31.43
2019-06-27T08:32:03.327Z,31.51
2019-06-27T08:34:31.653Z,31.56
2019-06-27T08:36:59.970Z,31.62
2019-06-27T08:39:28.388Z,31.74
2019-06-27T08:41:56.764Z,31.87
2019-06-27T08:44:25.226Z,31.84
2019-06-27T08:46:53.564Z,31.89
2019-06-27T08:49:21.884Z,31.83
2019-06-27T08:51:50.410Z,31.86
2019-06-27T08:54:18.905Z,31.94
2019-06-27T08:56:47.222Z,32.01
2019-06-27T08:59:15.596Z,32.03
2019-06-27T09:01:43.874Z,32.08
2019-06-27T09:04:12.271Z,32.14
2019-06-27T09:06:40.730Z,32.21
2019-06-27T09:09:09.149Z,32.23
2019-06-27T09:11:38.353Z,32.21
2019-06-27T09:14:06.776Z,32.32
2019-06-27T09:16:35.155Z,32.43
2019-06-27T09:19:03.458Z,32.60
2019-06-27T09:21:31.794Z,32.61
2019-06-27T09:24:00.083Z,32.69
2019-06-27T09:26:28.429Z,32.75
2019-06-27T09:28:56.809Z,32.81
2019-06-27T09:31:25.208Z,32.84
2019-06-27T09:33:53.688Z,32.75
2019-06-27T09:36:22.098Z,32.87
2019-06-27T09:38:50.433Z,32.96
2019-06-27T09:41:18.889Z,33.01
2019-06-27T09:43:47.252Z,33.18
2019-06-27T09:46:15.631Z,33.24
2019-06-27T09:48:44.097Z,33.36
2019-06-27T09:51:12.438Z,33.40
2019-06-27T09:53:40.761Z,33.42
2019-06-27T09:56:09.245Z,33.55
2019-06-27T09:58:37.633Z,33.75
2019-06-27T10:01:06.386Z,33.82
2019-06-27T10:03:34.984Z,33.80
2019-06-27T10:06:03.480Z,33.77
2019-06-27T10:08:32.037Z,34.02
2019-06-27T10:11:00.387Z,34.12
2019-06-27T10:13:28.847Z,34.10
2019-06-27T10:15:59.105Z,34.34
2019-06-27T10:18:28.647Z,34.48
2019-06-27T10:20:57.003Z,34.56
2019-06-27T10:23:25.671Z,34.53
2019-06-27T10:25:54.018Z,34.48
2019-06-27T10:28:22.441Z,34.22
2019-06-27T10:30:50.798Z,34.24
2019-06-27T10:33:19.175Z,34.35
2019-06-27T10:35:47.444Z,34.50
2019-06-27T10:38:15.936Z,34.57
2019-06-27T10:40:44.245Z,34.80
2019-06-27T10:43:12.779Z,34.91
2019-06-27T10:45:41.165Z,34.91
2019-06-27T10:48:09.540Z,34.98
2019-06-27T10:50:37.901Z,35.05
2019-06-27T10:53:06.301Z,35.13
2019-06-27T10:55:34.617Z,35.20
2019-06-27T10:58:03.017Z,35.22
2019-06-27T11:00:31.385Z,35.27
2019-06-27T11:03:14.470Z,35.36
2019-06-27T11:05:29.891Z,35.38
2019-06-27T11:07:58.218Z,35.34
2019-06-27T11:10:26.515Z,35.40
2019-06-27T11:12:54.975Z,35.53
2019-06-27T11:15:23.343Z,35.59
2019-06-27T11:17:51.718Z,35.70
2019-06-27T11:20:20.130Z,35.81
2019-06-27T11:22:48.452Z,35.78
2019-06-27T11:25:16.765Z,35.79
2019-06-27T11:27:45.056Z,35.91
2019-06-27T11:30:15.133Z,35.97
2019-06-27T11:32:43.422Z,36.04
2019-06-27T11:35:12.037Z,35.97
2019-06-27T11:37:40.472Z,35.97
2019-06-27T11:40:12.290Z,36.08
2019-06-27T11:42:39.695Z,36.18
2019-06-27T11:45:08.193Z,36.18
2019-06-27T11:47:36.645Z,36.32
2019-06-27T11:50:05.859Z,36.44
2019-06-27T11:52:34.209Z,36.36
2019-06-27T11:55:02.603Z,36.46
2019-06-27T11:57:30.987Z,36.44
2019-06-27T11:59:59.493Z,36.44
2019-06-27T12:02:27.859Z,36.39
2019-06-27T12:04:56.215Z,36.28
2019-06-27T12:07:24.520Z,36.46
2019-06-27T12:09:52.924Z,36.64
2019-06-27T12:12:21.235Z,36.82
2019-06-27T12:14:49.759Z,36.86
2019-06-27T12:17:18.051Z,36.80
2019-06-27T12:19:46.397Z,36.98
2019-06-27T12:22:14.805Z,37.03
2019-06-27T12:24:43.294Z,37.15
2019-06-27T12:27:11.611Z,37.22
2019-06-27T12:29:40.139Z,37.21
2019-06-27T12:32:08.435Z,37.33
2019-06-27T12:34:36.750Z,37.31
2019-06-27T12:37:05.240Z,37.43
2019-06-27T12:39:33.592Z,37.53
2019-06-27T12:42:02.079Z,37.50
2019-06-27T12:44:30.574Z,37.57
2019-06-27T12:46:59.008Z,37.59
2019-06-27T12:49:44.818Z,37.79
2019-06-27T12:51:57.485Z,37.84
2019-06-27T12:54:25.831Z,38.19
2019-06-27T12:56:54.603Z,38.27
2019-06-27T12:59:22.912Z,38.49
2019-06-27T13:01:51.263Z,38.70
2019-06-27T13:04:24.001Z,38.83
2019-06-27T13:06:49.626Z,38.66
2019-06-27T13:09:17.928Z,39.00
2019-06-27T13:11:46.346Z,39.13
2019-06-27T13:14:14.831Z,39.09
2019-06-27T13:16:43.273Z,38.87
2019-06-27T13:19:11.653Z,38.40
2019-06-27T13:21:40.275Z,38.45
2019-06-27T13:24:08.730Z,38.03
2019-06-27T13:26:37.110Z,38.09
2019-06-27T13:29:05.410Z,38.04
2019-06-27T13:31:33.853Z,38.06
2019-06-27T13:34:02.353Z,37.99
2019-06-27T13:36:33.246Z,38.27
2019-06-27T13:39:01.097Z,38.40
2019-06-27T13:41:29.390Z,38.61
2019-06-27T13:44:00.545Z,38.75
2019-06-27T13:46:28.926Z,38.51
2019-06-27T13:48:57.347Z,38.47
2019-06-27T13:51:25.654Z,38.54
2019-06-27T13:53:54.012Z,38.72
2019-06-27T13:56:22.384Z,38.86
2019-06-27T13:58:50.736Z,38.80
2019-06-27T14:01:19.054Z,38.52
2019-06-27T14:03:49.758Z,38.40
2019-06-27T14:06:17.621Z,38.61
2019-06-27T14:08:46.073Z,38.74
2019-06-27T14:11:14.446Z,38.80
2019-06-27T14:13:42.761Z,38.75
2019-06-27T14:16:11.223Z,38.55
2019-06-27T14:18:39.615Z,38.73
2019-06-27T14:21:07.990Z,38.71
2019-06-27T14:23:36.356Z,38.70
2019-06-27T14:26:04.922Z,38.64
2019-06-27T14:28:33.231Z,38.62
2019-06-27T14:31:01.541Z,38.60
2019-06-27T14:33:29.961Z,38.54
2019-06-27T14:35:58.331Z,38.30
2019-06-27T14:38:26.884Z,38.28
2019-06-27T14:40:55.282Z,38.25
2019-06-27T14:43:23.550Z,38.20
2019-06-27T14:45:51.993Z,38.23
2019-06-27T14:48:20.307Z,38.00
2019-06-27T14:50:48.715Z,37.70
2019-06-27T14:53:17.195Z,37.60
2019-06-27T14:55:45.559Z,37.83
2019-06-27T14:58:13.987Z,37.52
2019-06-27T15:00:42.406Z,37.03
2019-06-27T15:03:11.090Z,36.85
2019-06-27T15:05:39.452Z,36.64
2019-06-27T15:08:07.899Z,36.91
2019-06-27T15:10:36.284Z,36.81
2019-06-27T15:13:04.583Z,36.91
2019-06-27T15:15:32.938Z,36.89
2019-06-27T15:18:01.270Z,36.95
2019-06-27T15:20:29.676Z,36.87
2019-06-27T15:22:58.086Z,36.81
2019-06-27T15:25:28.446Z,36.78
2019-06-27T15:27:56.700Z,36.74
2019-06-27T15:30:25.191Z,36.77
2019-06-27T15:32:53.484Z,36.62
2019-06-27T15:35:22.053Z,36.59
2019-06-27T15:37:50.365Z,36.24
2019-06-27T15:40:19.317Z,36.08
2019-06-27T15:42:47.707Z,36.24
2019-06-27T15:45:16.110Z,36.33
2019-06-27T15:47:44.536Z,36.23
2019-06-27T15:50:13.022Z,36.26
2019-06-27T15:52:41.454Z,36.28
2019-06-27T15:55:12.204Z,36.32
2019-06-27T15:57:40.904Z,36.30
2019-06-27T16:00:09.357Z,36.23
2019-06-27T16:02:38.508Z,36.03
2019-06-27T16:05:07.311Z,35.99
2019-06-27T16:07:35.820Z,35.92
2019-06-27T16:10:08.136Z,35.88
2019-06-27T16:12:36.892Z,35.62
2019-06-27T16:15:08.362Z,35.45
2019-06-27T16:17:36.746Z,35.60
2019-06-27T16:20:06.814Z,35.38
2019-06-27T16:22:36.905Z,35.27
2019-06-27T16:25:07.051Z,35.23
2019-06-27T16:27:35.475Z,35.11
2019-06-27T16:30:05.352Z,34.89
2019-06-27T16:32:33.715Z,34.93
2019-06-27T16:35:02.102Z,34.70
2019-06-27T16:37:30.735Z,34.73
2019-06-27T16:39:59.127Z,34.73
2019-06-27T16:42:27.611Z,34.71
2019-06-27T16:44:56.038Z,34.60
2019-06-27T16:47:24.470Z,34.48
2019-06-27T16:49:52.970Z,34.39
2019-06-27T16:52:21.401Z,34.36
2019-06-27T16:54:49.782Z,34.38
2019-06-27T16:57:18.161Z,34.29
2019-06-27T16:59:46.495Z,34.19
2019-06-27T17:02:14.874Z,34.05
2019-06-27T17:04:43.416Z,34.01
2019-06-27T17:07:11.731Z,33.97
2019-06-27T17:09:41.323Z,33.88
2019-06-27T17:12:09.612Z,33.78
2019-06-27T17:14:38.017Z,33.76
2019-06-27T17:17:06.379Z,33.73
2019-06-27T17:19:34.813Z,33.74
2019-06-27T17:22:03.154Z,33.64
2019-06-27T17:24:31.457Z,33.70
2019-06-27T17:26:59.788Z,33.58
2019-06-27T17:29:28.242Z,33.43
2019-06-27T17:31:56.564Z,33.42
2019-06-27T17:34:24.888Z,33.27
2019-06-27T17:36:57.923Z,33.19
2019-06-27T17:39:23.487Z,33.03
2019-06-27T17:41:51.781Z,32.10
2019-06-27T17:44:20.251Z,30.89
2019-06-27T17:46:48.906Z,30.17
2019-06-27T17:49:17.317Z,29.58
2019-06-27T17:51:45.694Z,29.25
2019-06-27T17:54:14.023Z,29.01
2019-06-27T17:56:42.344Z,28.93
2019-06-27T17:59:10.728Z,28.89
2019-06-27T18:01:39.840Z,28.83
2019-06-27T18:04:08.167Z,28.86
2019-06-27T18:06:36.544Z,28.86
2019-06-27T18:09:05.107Z,28.89
2019-06-27T18:11:33.495Z,28.93
2019-06-27T18:14:01.901Z,28.97
2019-06-27T18:16:30.306Z,29.01
2019-06-27T18:19:00.691Z,29.12
2019-06-27T18:21:28.701Z,29.14
2019-06-27T18:23:57.249Z,29.08
2019-06-27T18:26:25.641Z,28.90
2019-06-27T18:28:54.057Z,28.68
2019-06-27T18:31:22.459Z,28.49
2019-06-27T18:33:50.986Z,28.36
2019-06-27T18:36:19.324Z,28.29
2019-06-27T18:38:47.756Z,28.28
2019-06-27T18:41:16.253Z,28.25
2019-06-27T18:43:44.728Z,28.24
2019-06-27T18:46:13.216Z,28.25
2019-06-27T18:48:41.484Z,28.25
2019-06-27T18:51:09.894Z,28.29
2019-06-27T18:53:38.342Z,28.33
2019-06-27T18:56:06.699Z,28.35
2019-06-27T18:58:35.166Z,28.36
2019-06-27T19:01:03.657Z,28.40
2019-06-27T19:03:32.048Z,28.39
2019-06-27T19:06:00.484Z,28.41
2019-06-27T19:08:28.856Z,28.44
2019-06-27T19:10:57.216Z,28.48
2019-06-27T19:13:27.261Z,28.52
2019-06-27T19:15:57.242Z,28.52
2019-06-27T19:18:48.248Z,28.47
2019-06-27T19:21:26.261Z,28.49
2019-06-27T19:23:56.276Z,28.45
2019-06-27T19:26:24.577Z,28.39
2019-06-27T19:28:53.139Z,28.39
2019-06-27T19:31:21.703Z,28.35
2019-06-27T19:33:50.249Z,28.30
2019-06-27T19:36:20.274Z,28.18
2019-06-27T19:38:50.821Z,28.15
2019-06-27T19:41:19.280Z,28.15
2019-06-27T19:43:49.436Z,28.18
2019-06-27T19:46:19.921Z,28.14
2019-06-27T19:48:48.600Z,28.10
2019-06-27T19:51:17.106Z,28.06
2019-06-27T19:53:45.517Z,27.99
2019-06-27T19:56:13.823Z,28.00
2019-06-27T19:58:42.441Z,27.90
2019-06-27T20:01:10.886Z,27.87
2019-06-27T20:03:39.289Z,27.88
2019-06-27T20:06:07.664Z,27.87
2019-06-27T20:08:36.090Z,27.78
2019-06-27T20:11:04.725Z,27.75
2019-06-27T20:13:33.122Z,27.78
2019-06-27T20:16:01.599Z,27.73
2019-06-27T20:18:29.926Z,27.72
2019-06-27T20:20:58.290Z,27.71
2019-06-27T20:23:26.611Z,27.64
2019-06-27T20:25:55.026Z,27.59
2019-06-27T20:28:23.316Z,27.71
2019-06-27T20:30:51.668Z,27.69
2019-06-27T20:33:21.431Z,27.72
2019-06-27T20:35:49.791Z,27.63
2019-06-27T20:38:30.777Z,27.62
2019-06-27T20:40:48.452Z,27.62
2019-06-27T20:43:16.820Z,27.59
2019-06-27T20:45:45.350Z,27.56
2019-06-27T20:48:13.710Z,27.53
2019-06-27T20:50:42.044Z,27.56
2019-06-27T20:53:10.531Z,27.59
2019-06-27T20:55:38.930Z,27.59
2019-06-27T20:58:07.385Z,27.61
2019-06-27T21:00:35.925Z,27.63
2019-06-27T21:03:04.585Z,27.62
2019-06-27T21:05:33.060Z,27.57
2019-06-27T21:08:01.457Z,27.47
2019-06-27T21:10:30.026Z,27.47
2019-06-27T21:12:58.309Z,27.44
2019-06-27T21:15:26.642Z,27.47
2019-06-27T21:17:55.085Z,27.44
2019-06-27T21:20:24.051Z,27.38
2019-06-27T21:22:52.531Z,27.37
2019-06-27T21:25:21.020Z,27.34
2019-06-27T21:27:49.457Z,27.29
2019-06-27T21:30:18.028Z,27.14
2019-06-27T21:32:48.430Z,27.17
2019-06-27T21:35:16.530Z,27.22
2019-06-27T21:37:44.840Z,27.23
2019-06-27T21:40:13.606Z,27.19
2019-06-27T21:42:42.063Z,27.20
2019-06-27T21:45:11.263Z,27.09
2019-06-27T21:47:39.719Z,27.01
2019-06-27T21:50:08.251Z,27.03
2019-06-27T21:52:36.980Z,27.06
2019-06-27T21:55:06.345Z,27.01
2019-06-27T21:57:34.746Z,27.02
2019-06-27T22:00:04.282Z,27.00
2019-06-27T22:02:32.654Z,26.95
2019-06-27T22:05:01.029Z,26.87
2019-06-27T22:07:29.602Z,26.80
2019-06-27T22:09:58.041Z,26.72
2019-06-27T22:12:26.417Z,26.66
2019-06-27T22:14:54.730Z,26.57
2019-06-27T22:17:23.043Z,26.51
2019-06-27T22:19:51.415Z,26.45
2019-06-27T22:22:19.731Z,26.36
2019-06-27T22:24:48.022Z,26.24
2019-06-27T22:27:16.409Z,26.22
2019-06-27T22:29:44.775Z,26.12
2019-06-27T22:32:13.234Z,26.03
2019-06-27T22:34:43.451Z,25.90
2019-06-27T22:37:12.095Z,25.83
2019-06-27T22:39:58.682Z,25.78
2019-06-27T22:42:44.978Z,25.66
2019-06-27T22:45:31.632Z,25.50
2019-06-27T22:48:13.976Z,25.30
2019-06-27T22:50:50.671Z,25.39
2019-06-27T22:53:25.138Z,25.41
2019-06-27T22:55:54.674Z,25.24
2019-06-27T22:58:23.124Z,25.29
2019-06-27T23:00:51.715Z,25.28
2019-06-27T23:03:20.165Z,25.28
2019-06-27T23:05:48.547Z,25.25
2019-06-27T23:08:16.884Z,25.23
2019-06-27T23:10:45.230Z,25.19
2019-06-27T23:13:13.611Z,25.11
2019-06-27T23:15:42.450Z,25.03
2019-06-27T23:18:10.823Z,24.96
2019-06-27T23:20:39.208Z,24.89
2019-06-27T23:23:07.526Z,24.81
2019-06-27T23:25:35.840Z,24.81
2019-06-27T23:28:04.152Z,24.74
2019-06-27T23:30:34.087Z,24.52
2019-06-27T23:33:02.395Z,24.51
2019-06-27T23:35:30.771Z,24.51
2019-06-27T23:37:59.146Z,24.47
2019-06-27T23:40:27.536Z,24.42
2019-06-27T23:42:55.860Z,24.41
2019-06-27T23:45:24.270Z,24.44
2019-06-27T23:47:52.625Z,24.32
2019-06-27T23:50:20.965Z,24.23
2019-06-27T23:52:49.268Z,24.27
2019-06-27T23:55:17.652Z,24.27
2019-06-27T23:57:46.031Z,24.12
